createdAt,value
2018-10-03T00:00:28.389Z,78.85
2018-10-03T00:01:28.600Z,78.46
2018-10-03T00:02:28.409Z,79.13
2018-10-03T00:03:28.418Z,78.75
2018-10-03T00:04:28.416Z,78.94
2018-10-03T00:05:28.409Z,79.33
2018-10-03T00:06:28.421Z,79.33
2018-10-03T00:07:28.622Z,78.94
2018-10-03T00:08:28.624Z,79.13
2018-10-03T00:09:28.644Z,78.85
2018-10-03T00:10:28.429Z,78.85
2018-10-03T00:11:28.452Z,79.23
2018-10-03T00:12:28.440Z,79.43
2018-10-03T00:13:28.442Z,78.94
2018-10-03T00:14:28.464Z,78.75
2018-10-03T00:15:28.451Z,78.56
2018-10-03T00:16:28.459Z,78.85
2018-10-03T00:17:28.457Z,78.75
2018-10-03T00:18:28.465Z,79.03
2018-10-03T00:19:28.478Z,79.03
2018-10-03T00:20:28.471Z,79.03
2018-10-03T00:21:28.475Z,79.13
2018-10-03T00:22:28.493Z,79.03
2018-10-03T00:23:28.525Z,79.03
2018-10-03T00:24:28.489Z,79.03
2018-10-03T00:25:28.504Z,78.85
2018-10-03T00:26:28.508Z,78.46
2018-10-03T00:27:28.721Z,78.94
2018-10-03T00:28:28.523Z,78.75
2018-10-03T00:29:28.511Z,78.75
2018-10-03T00:30:28.718Z,78.46
2018-10-03T00:31:28.519Z,78.56
2018-10-03T00:32:28.740Z,78.46
2018-10-03T00:33:28.525Z,78.94
2018-10-03T00:34:28.532Z,79.27
2018-10-03T00:35:28.536Z,79.13
2018-10-03T00:36:28.539Z,79.23
2018-10-03T00:37:28.541Z,78.75
2018-10-03T00:38:28.548Z,78.94
2018-10-03T00:39:28.550Z,78.85
2018-10-03T00:40:28.556Z,78.75
2018-10-03T00:41:28.563Z,78.85
2018-10-03T00:42:28.561Z,78.85
2018-10-03T00:43:28.779Z,78.75
2018-10-03T00:44:28.573Z,78.75
2018-10-03T00:45:28.576Z,78.75
2018-10-03T00:46:28.578Z,79.23
2018-10-03T00:47:28.586Z,79.13
2018-10-03T00:48:28.589Z,79.13
2018-10-03T00:49:28.794Z,78.75
2018-10-03T00:50:28.596Z,78.94
2018-10-03T00:51:28.814Z,78.75
2018-10-03T00:52:28.607Z,79.33
2018-10-03T00:53:28.608Z,78.94
2018-10-03T00:54:28.814Z,78.94
2018-10-03T00:55:28.832Z,78.94
2018-10-03T00:56:28.633Z,78.94
2018-10-03T00:57:28.650Z,79.13
2018-10-03T00:58:28.845Z,79.43
2018-10-03T00:59:28.645Z,79.52
2018-10-03T01:00:28.649Z,79.13
2018-10-03T01:01:28.844Z,79.23
2018-10-03T01:02:28.646Z,79.52
2018-10-03T01:03:28.667Z,79.23
2018-10-03T01:04:28.657Z,79.33
2018-10-03T01:05:28.658Z,79.13
2018-10-03T01:06:28.674Z,79.33
2018-10-03T01:07:28.904Z,78.85
2018-10-03T01:08:28.674Z,79.03
2018-10-03T01:09:28.674Z,78.75
2018-10-03T01:10:28.691Z,79.03
2018-10-03T01:11:28.695Z,79.33
2018-10-03T01:12:28.704Z,79.33
2018-10-03T01:13:28.697Z,78.85
2018-10-03T01:14:28.695Z,79.23
2018-10-03T01:15:28.746Z,79.03
2018-10-03T01:16:28.716Z,79.33
2018-10-03T01:17:28.708Z,79.33
2018-10-03T01:18:28.723Z,79.33
2018-10-03T01:19:28.749Z,78.94
2018-10-03T01:20:28.923Z,78.75
2018-10-03T01:21:28.724Z,79.03
2018-10-03T01:22:28.930Z,78.85
2018-10-03T01:23:28.734Z,78.75
2018-10-03T01:24:28.941Z,79.03
2018-10-03T01:25:28.942Z,78.75
2018-10-03T01:26:28.744Z,78.85
2018-10-03T01:27:28.954Z,79.33
2018-10-03T01:28:28.756Z,78.75
2018-10-03T01:29:28.754Z,78.85
2018-10-03T01:30:28.767Z,78.75
2018-10-03T01:31:28.777Z,78.94
2018-10-03T01:32:28.769Z,78.85
2018-10-03T01:33:29.002Z,79.03
2018-10-03T01:34:28.775Z,79.03
2018-10-03T01:35:28.780Z,78.85
2018-10-03T01:36:28.787Z,79.03
2018-10-03T01:37:28.993Z,78.94
2018-10-03T01:38:28.878Z,79.03
2018-10-03T01:39:28.798Z,79.03
2018-10-03T01:40:29.005Z,78.75
2018-10-03T01:41:28.818Z,78.94
2018-10-03T01:42:28.810Z,79.03
2018-10-03T01:43:28.826Z,78.94
2018-10-03T01:44:29.042Z,78.94
2018-10-03T01:45:28.834Z,78.75
2018-10-03T01:46:29.041Z,79.03
2018-10-03T01:47:28.830Z,79.03
2018-10-03T01:48:28.836Z,78.75
2018-10-03T01:49:29.054Z,78.85
2018-10-03T01:50:28.843Z,78.85
2018-10-03T01:51:28.881Z,78.85
2018-10-03T01:52:28.853Z,79.03
2018-10-03T01:53:28.858Z,79.03
2018-10-03T01:54:28.861Z,79.03
2018-10-03T01:55:29.078Z,78.85
2018-10-03T01:56:28.868Z,79.03
2018-10-03T01:57:28.872Z,78.94
2018-10-03T01:58:28.924Z,79.03
2018-10-03T01:59:28.887Z,79.03
2018-10-03T02:00:28.887Z,78.85
2018-10-03T02:01:29.090Z,79.13
2018-10-03T02:02:28.889Z,78.85
2018-10-03T02:03:28.897Z,78.94
2018-10-03T02:04:28.905Z,78.85
2018-10-03T02:05:28.904Z,78.94
2018-10-03T02:06:28.907Z,79.03
2018-10-03T02:07:29.114Z,78.75
2018-10-03T02:08:28.915Z,78.85
2018-10-03T02:09:28.919Z,78.94
2018-10-03T02:10:28.937Z,79.03
2018-10-03T02:11:29.155Z,79.13
2018-10-03T02:12:28.950Z,79.03
2018-10-03T02:13:28.936Z,78.94
2018-10-03T02:14:28.941Z,79.03
2018-10-03T02:15:29.151Z,79.13
2018-10-03T02:16:28.949Z,79.13
2018-10-03T02:17:28.952Z,78.75
2018-10-03T02:18:28.969Z,78.75
2018-10-03T02:19:28.960Z,79.03
2018-10-03T02:20:28.987Z,79.23
2018-10-03T02:21:29.172Z,78.75
2018-10-03T02:22:29.204Z,79.03
2018-10-03T02:23:28.976Z,79.03
2018-10-03T02:24:29.194Z,78.56
2018-10-03T02:25:28.985Z,79.03
2018-10-03T02:26:29.204Z,78.36
2018-10-03T02:27:28.993Z,78.75
2018-10-03T02:28:28.998Z,79.13
2018-10-03T02:29:29.214Z,79.00
2018-10-03T02:30:29.005Z,79.13
2018-10-03T02:31:29.009Z,79.13
2018-10-03T02:32:29.231Z,79.23
2018-10-03T02:33:29.037Z,78.56
2018-10-03T02:34:29.039Z,79.23
2018-10-03T02:35:29.043Z,78.85
2018-10-03T02:36:29.045Z,79.03
2018-10-03T02:37:29.055Z,79.03
2018-10-03T02:38:29.048Z,78.85
2018-10-03T02:39:29.046Z,78.75
2018-10-03T02:40:29.081Z,78.85
2018-10-03T02:41:29.083Z,78.85
2018-10-03T02:42:29.072Z,78.85
2018-10-03T02:43:29.132Z,78.85
2018-10-03T02:44:29.075Z,79.03
2018-10-03T02:45:29.104Z,78.94
2018-10-03T02:46:29.098Z,78.94
2018-10-03T02:47:29.309Z,79.13
2018-10-03T02:48:29.094Z,78.94
2018-10-03T02:49:29.100Z,79.00
2018-10-03T02:50:29.100Z,78.85
2018-10-03T02:51:29.094Z,78.94
2018-10-03T02:52:29.103Z,78.85
2018-10-03T02:53:29.100Z,78.75
2018-10-03T02:54:29.101Z,79.03
2018-10-03T02:55:29.116Z,78.81
2018-10-03T02:56:29.113Z,78.75
2018-10-03T02:57:29.119Z,78.75
2018-10-03T02:58:29.120Z,79.13
2018-10-03T02:59:29.122Z,78.94
2018-10-03T03:00:29.127Z,78.65
2018-10-03T03:01:29.232Z,78.46
2018-10-03T03:02:29.135Z,78.36
2018-10-03T03:03:29.155Z,78.65
2018-10-03T03:04:29.164Z,78.75
2018-10-03T03:05:29.157Z,78.46
2018-10-03T03:06:29.160Z,78.46
2018-10-03T03:07:29.157Z,78.27
2018-10-03T03:08:29.202Z,78.33
2018-10-03T03:09:29.173Z,78.27
2018-10-03T03:10:29.181Z,78.85
2018-10-03T03:11:29.204Z,78.81
2018-10-03T03:12:29.261Z,78.42
2018-10-03T03:13:29.278Z,78.56
2018-10-03T03:14:29.232Z,78.23
2018-10-03T03:15:29.186Z,78.36
2018-10-03T03:16:29.204Z,78.52
2018-10-03T03:17:29.205Z,78.52
2018-10-03T03:18:29.198Z,78.23
2018-10-03T03:19:29.213Z,78.52
2018-10-03T03:20:29.209Z,78.52
2018-10-03T03:21:29.210Z,78.71
2018-10-03T03:22:29.216Z,78.52
2018-10-03T03:23:29.222Z,78.61
2018-10-03T03:24:29.221Z,78.81
2018-10-03T03:25:29.238Z,79.23
2018-10-03T03:26:29.232Z,79.10
2018-10-03T03:27:29.254Z,79.00
2018-10-03T03:28:29.237Z,79.19
2018-10-03T03:29:29.242Z,79.10
2018-10-03T03:30:29.259Z,79.00
2018-10-03T03:31:29.250Z,79.38
2018-10-03T03:32:29.256Z,79.19
2018-10-03T03:33:29.268Z,79.10
2018-10-03T03:34:29.276Z,79.13
2018-10-03T03:35:29.267Z,78.94
2018-10-03T03:36:29.281Z,78.81
2018-10-03T03:37:29.272Z,79.10
2018-10-03T03:38:29.278Z,78.94
2018-10-03T03:39:29.285Z,79.28
2018-10-03T03:40:29.296Z,78.71
2018-10-03T03:41:29.293Z,78.90
2018-10-03T03:42:29.297Z,78.90
2018-10-03T03:43:29.317Z,79.10
2018-10-03T03:44:29.328Z,79.19
2018-10-03T03:45:29.320Z,79.00
2018-10-03T03:46:29.342Z,78.81
2018-10-03T03:48:29.327Z,78.52
2018-10-03T03:49:29.320Z,78.42
2018-10-03T03:50:29.334Z,78.52
2018-10-03T03:51:29.343Z,78.71
2018-10-03T03:52:29.344Z,78.23
2018-10-03T03:53:29.338Z,79.10
2018-10-03T03:54:29.341Z,79.28
2018-10-03T03:55:29.355Z,79.13
2018-10-03T03:56:29.359Z,79.23
2018-10-03T03:57:29.353Z,79.28
2018-10-03T03:58:29.356Z,79.13
2018-10-03T03:59:29.390Z,79.33
2018-10-03T04:00:29.366Z,79.33
2018-10-03T04:01:29.370Z,79.33
2018-10-03T04:02:29.382Z,79.03
2018-10-03T04:03:29.398Z,78.75
2018-10-03T04:04:29.390Z,78.85
2018-10-03T04:05:29.386Z,78.75
2018-10-03T04:06:29.388Z,78.75
2018-10-03T04:07:29.420Z,78.56
2018-10-03T04:08:29.408Z,78.69
2018-10-03T04:09:29.418Z,78.40
2018-10-03T04:10:29.404Z,78.40
2018-10-03T04:11:29.422Z,78.21
2018-10-03T04:12:29.414Z,78.02
2018-10-03T04:13:29.418Z,77.92
2018-10-03T04:14:29.438Z,77.44
2018-10-03T04:15:29.429Z,76.96
2018-10-03T04:16:29.444Z,77.15
2018-10-03T04:17:29.448Z,77.06
2018-10-03T04:18:29.449Z,76.67
2018-10-03T04:19:29.456Z,76.13
2018-10-03T04:20:29.445Z,76.32
2018-10-03T04:21:29.493Z,75.84
2018-10-03T04:22:29.455Z,76.03
2018-10-03T04:23:29.457Z,76.03
2018-10-03T04:24:29.466Z,75.65
2018-10-03T04:25:29.467Z,75.65
2018-10-03T04:26:29.470Z,75.16
2018-10-03T04:27:29.482Z,75.65
2018-10-03T04:28:29.479Z,75.45
2018-10-03T04:29:29.484Z,75.26
2018-10-03T04:30:29.506Z,75.20
2018-10-03T04:31:29.493Z,74.82
2018-10-03T04:32:29.508Z,74.72
2018-10-03T04:33:29.498Z,74.72
2018-10-03T04:34:29.517Z,74.33
2018-10-03T04:35:29.539Z,74.33
2018-10-03T04:36:29.528Z,74.43
2018-10-03T04:37:29.542Z,74.62
2018-10-03T04:38:29.532Z,74.52
2018-10-03T04:39:29.543Z,74.72
2018-10-03T04:40:29.532Z,74.62
2018-10-03T04:41:29.536Z,74.72
2018-10-03T04:42:29.539Z,74.62
2018-10-03T04:43:29.544Z,74.72
2018-10-03T04:44:29.577Z,74.72
2018-10-03T04:45:29.552Z,74.05
2018-10-03T04:46:29.557Z,73.95
2018-10-03T04:47:29.571Z,74.14
2018-10-03T04:48:29.570Z,74.14
2018-10-03T04:49:29.581Z,74.14
2018-10-03T04:50:29.578Z,74.14
2018-10-03T04:51:29.581Z,74.05
2018-10-03T04:52:29.595Z,74.24
2018-10-03T04:53:29.590Z,74.24
2018-10-03T04:54:29.593Z,74.24
2018-10-03T04:55:29.604Z,74.24
2018-10-03T04:56:29.605Z,74.14
2018-10-03T04:57:29.607Z,74.05
2018-10-03T04:58:29.618Z,74.33
2018-10-03T04:59:29.622Z,74.33
2018-10-03T05:00:29.646Z,74.24
2018-10-03T05:01:29.627Z,74.05
2018-10-03T05:02:29.657Z,73.85
2018-10-03T05:03:29.637Z,74.91
2018-10-03T05:04:29.642Z,74.82
2018-10-03T05:05:29.644Z,74.62
2018-10-03T05:06:29.649Z,74.72
2018-10-03T05:07:29.665Z,74.62
2018-10-03T05:08:29.685Z,74.33
2018-10-03T05:09:29.664Z,74.62
2018-10-03T05:10:29.678Z,74.91
2018-10-03T05:11:29.733Z,74.91
2018-10-03T05:12:29.705Z,75.10
2018-10-03T05:13:29.694Z,74.91
2018-10-03T05:14:29.692Z,74.91
2018-10-03T05:15:29.702Z,75.20
2018-10-03T05:16:29.695Z,75.10
2018-10-03T05:17:29.708Z,75.49
2018-10-03T05:18:29.718Z,75.68
2018-10-03T05:19:29.720Z,75.68
2018-10-03T05:20:29.712Z,75.78
2018-10-03T05:21:29.720Z,75.40
2018-10-03T05:22:29.721Z,75.40
2018-10-03T05:23:29.737Z,75.68
2018-10-03T05:24:29.745Z,75.78
2018-10-03T05:25:29.735Z,76.26
2018-10-03T05:26:29.752Z,75.88
2018-10-03T05:27:29.750Z,76.36
2018-10-03T05:28:29.751Z,75.97
2018-10-03T05:29:29.755Z,75.97
2018-10-03T05:30:29.773Z,76.26
2018-10-03T05:31:29.774Z,76.36
2018-10-03T05:32:29.771Z,76.84
2018-10-03T05:33:29.773Z,76.26
2018-10-03T05:34:29.780Z,76.36
2018-10-03T05:35:30.015Z,76.07
2018-10-03T05:36:29.786Z,76.17
2018-10-03T05:37:29.805Z,76.07
2018-10-03T05:38:29.810Z,76.26
2018-10-03T05:39:29.818Z,76.17
2018-10-03T05:40:29.850Z,76.17
2018-10-03T05:41:29.813Z,76.17
2018-10-03T05:42:29.828Z,75.68
2018-10-03T05:43:29.820Z,75.40
2018-10-03T05:44:29.835Z,75.78
2018-10-03T05:45:29.829Z,75.68
2018-10-03T05:46:29.836Z,75.65
2018-10-03T05:47:29.857Z,75.68
2018-10-03T05:48:29.885Z,75.36
2018-10-03T05:49:29.866Z,75.84
2018-10-03T05:50:29.857Z,75.84
2018-10-03T05:51:29.870Z,75.55
2018-10-03T05:52:29.862Z,75.45
2018-10-03T05:53:29.869Z,75.16
2018-10-03T05:54:29.906Z,74.68
2018-10-03T05:55:29.889Z,74.49
2018-10-03T05:56:29.895Z,74.30
2018-10-03T05:57:29.887Z,73.91
2018-10-03T05:58:29.902Z,73.82
2018-10-03T05:59:29.896Z,73.91
2018-10-03T06:00:29.901Z,73.72
2018-10-03T06:01:29.905Z,74.01
2018-10-03T06:02:29.921Z,74.01
2018-10-03T06:03:29.926Z,73.62
2018-10-03T06:04:30.060Z,73.43
2018-10-03T06:05:29.968Z,73.33
2018-10-03T06:06:29.928Z,73.72
2018-10-03T06:07:29.982Z,73.43
2018-10-03T06:08:29.948Z,73.43
2018-10-03T06:09:29.945Z,73.82
2018-10-03T06:10:29.951Z,73.91
2018-10-03T06:11:29.949Z,73.82
2018-10-03T06:12:30.158Z,73.43
2018-10-03T06:13:29.974Z,73.72
2018-10-03T06:14:29.979Z,73.68
2018-10-03T06:15:29.977Z,73.49
2018-10-03T06:16:29.987Z,73.58
2018-10-03T06:17:30.014Z,73.01
2018-10-03T06:18:30.055Z,73.68
2018-10-03T06:19:30.009Z,73.58
2018-10-03T06:20:30.003Z,73.58
2018-10-03T06:21:29.991Z,73.49
2018-10-03T06:22:30.211Z,73.49
2018-10-03T06:23:30.001Z,73.20
2018-10-03T06:24:30.010Z,73.68
2018-10-03T06:25:30.009Z,73.78
2018-10-03T06:26:30.027Z,73.39
2018-10-03T06:27:30.022Z,73.10
2018-10-03T06:28:30.237Z,73.20
2018-10-03T06:29:30.029Z,73.39
2018-10-03T06:30:30.034Z,73.58
2018-10-03T06:31:30.039Z,73.49
2018-10-03T06:32:30.054Z,73.58
2018-10-03T06:33:30.072Z,73.20
2018-10-03T06:34:30.062Z,73.30
2018-10-03T06:35:30.069Z,73.10
2018-10-03T06:36:30.062Z,72.91
2018-10-03T06:37:30.074Z,72.91
2018-10-03T06:38:30.081Z,72.81
2018-10-03T06:39:30.103Z,72.63
2018-10-03T06:40:30.169Z,72.72
2018-10-03T06:41:30.082Z,72.72
2018-10-03T06:42:30.089Z,72.72
2018-10-03T06:43:30.091Z,73.20
2018-10-03T06:44:30.173Z,73.01
2018-10-03T06:45:30.138Z,74.16
2018-10-03T06:46:30.107Z,73.68
2018-10-03T06:47:30.124Z,73.68
2018-10-03T06:48:30.123Z,73.58
2018-10-03T06:49:30.114Z,73.39
2018-10-03T06:50:30.134Z,73.39
2018-10-03T06:51:30.139Z,73.30
2018-10-03T06:52:30.131Z,73.30
2018-10-03T06:53:30.143Z,73.30
2018-10-03T06:54:30.135Z,73.58
2018-10-03T06:55:30.143Z,73.39
2018-10-03T06:56:30.157Z,73.68
2018-10-03T06:57:30.150Z,73.49
2018-10-03T06:58:30.152Z,73.39
2018-10-03T06:59:30.159Z,73.78
2018-10-03T07:00:30.175Z,73.78
2018-10-03T07:01:30.167Z,73.97
2018-10-03T07:02:30.169Z,74.61
2018-10-03T07:03:30.176Z,74.65
2018-10-03T07:04:30.192Z,74.65
2018-10-03T07:05:30.215Z,74.84
2018-10-03T07:06:30.202Z,74.65
2018-10-03T07:07:30.192Z,74.74
2018-10-03T07:08:30.206Z,74.74
2018-10-03T07:09:30.210Z,74.84
2018-10-03T07:10:30.233Z,74.84
2018-10-03T07:11:30.209Z,74.74
2018-10-03T07:12:30.215Z,74.74
2018-10-03T07:13:30.222Z,74.84
2018-10-03T07:14:30.225Z,74.84
2018-10-03T07:15:30.238Z,74.65
2018-10-03T07:16:30.445Z,74.36
2018-10-03T07:17:30.237Z,74.45
2018-10-03T07:18:30.267Z,74.84
2018-10-03T07:19:30.256Z,74.55
2018-10-03T07:20:30.246Z,74.36
2018-10-03T07:21:30.253Z,74.55
2018-10-03T07:22:30.269Z,74.84
2018-10-03T07:23:30.278Z,74.93
2018-10-03T07:24:30.468Z,74.93
2018-10-03T07:25:30.283Z,74.74
2018-10-03T07:26:30.282Z,75.23
2018-10-03T07:27:30.276Z,75.61
2018-10-03T07:28:30.294Z,75.51
2018-10-03T07:29:30.309Z,75.51
2018-10-03T07:30:30.299Z,75.51
2018-10-03T07:31:30.308Z,75.32
2018-10-03T07:32:30.333Z,75.32
2018-10-03T07:33:30.303Z,75.23
2018-10-03T07:34:30.306Z,75.61
2018-10-03T07:35:30.315Z,75.03
2018-10-03T07:36:30.317Z,75.42
2018-10-03T07:37:30.332Z,75.51
2018-10-03T07:38:30.325Z,75.07
2018-10-03T07:39:30.330Z,75.42
2018-10-03T07:40:30.357Z,75.13
2018-10-03T07:41:30.350Z,75.36
2018-10-03T07:42:30.341Z,75.36
2018-10-03T07:43:30.344Z,75.55
2018-10-03T07:44:30.351Z,75.45
2018-10-03T07:45:30.357Z,75.55
2018-10-03T07:46:30.370Z,75.36
2018-10-03T07:47:30.376Z,75.36
2018-10-03T07:48:30.383Z,75.36
2018-10-03T07:49:30.386Z,75.36
2018-10-03T07:50:30.378Z,75.26
2018-10-03T07:51:30.410Z,75.36
2018-10-03T07:52:30.440Z,75.55
2018-10-03T07:53:30.453Z,75.36
2018-10-03T07:54:30.399Z,75.36
2018-10-03T07:55:30.397Z,75.74
2018-10-03T07:56:30.426Z,75.55
2018-10-03T07:57:30.405Z,75.45
2018-10-03T07:58:30.414Z,75.45
2018-10-03T07:59:30.444Z,75.65
2018-10-03T08:00:30.434Z,75.55
2018-10-03T08:01:30.424Z,75.36
2018-10-03T08:02:30.428Z,75.65
2018-10-03T08:03:30.434Z,75.36
2018-10-03T08:04:30.437Z,75.26
2018-10-03T08:05:30.442Z,75.36
2018-10-03T08:06:30.651Z,75.16
2018-10-03T08:07:30.451Z,75.26
2018-10-03T08:08:30.457Z,75.65
2018-10-03T08:09:30.461Z,74.88
2018-10-03T08:10:30.466Z,75.16
2018-10-03T08:11:30.474Z,75.07
2018-10-03T08:12:30.485Z,75.07
2018-10-03T08:13:30.480Z,74.88
2018-10-03T08:14:30.481Z,74.97
2018-10-03T08:15:30.492Z,74.88
2018-10-03T08:16:30.523Z,75.07
2018-10-03T08:17:30.594Z,74.97
2018-10-03T08:18:30.715Z,75.45
2018-10-03T08:19:30.721Z,76.07
2018-10-03T08:20:30.534Z,76.23
2018-10-03T08:21:30.517Z,75.45
2018-10-03T08:22:30.529Z,75.16
2018-10-03T08:23:30.541Z,75.10
2018-10-03T08:24:30.594Z,75.36
2018-10-03T08:25:30.760Z,75.40
2018-10-03T08:26:30.552Z,75.01
2018-10-03T08:27:30.582Z,74.97
2018-10-03T08:28:30.559Z,75.36
2018-10-03T08:29:30.552Z,75.07
2018-10-03T08:30:30.568Z,74.88
2018-10-03T08:31:30.561Z,74.20
2018-10-03T08:32:30.688Z,73.82
2018-10-03T08:33:30.575Z,73.43
2018-10-03T08:34:30.575Z,72.75
2018-10-03T08:35:30.600Z,73.43
2018-10-03T08:36:30.598Z,73.24
2018-10-03T08:37:30.613Z,73.05
2018-10-03T08:38:30.650Z,73.43
2018-10-03T08:39:30.613Z,73.53
2018-10-03T08:40:30.602Z,73.43
2018-10-03T08:41:30.621Z,74.01
2018-10-03T08:42:30.612Z,73.72
2018-10-03T08:43:30.639Z,73.62
2018-10-03T08:44:30.621Z,74.10
2018-10-03T08:45:30.799Z,74.01
2018-10-03T08:46:30.630Z,73.62
2018-10-03T08:47:30.633Z,73.91
2018-10-03T08:48:30.671Z,73.82
2018-10-03T08:49:30.656Z,73.91
2018-10-03T08:50:30.650Z,73.82
2018-10-03T08:51:30.662Z,74.10
2018-10-03T08:52:30.692Z,74.01
2018-10-03T08:53:30.665Z,74.20
2018-10-03T08:54:30.676Z,74.20
2018-10-03T08:55:30.693Z,74.20
2018-10-03T08:56:30.688Z,74.01
2018-10-03T08:57:30.709Z,74.01
2018-10-03T08:58:30.776Z,74.10
2018-10-03T08:59:30.704Z,73.91
2018-10-03T09:00:30.728Z,74.20
2018-10-03T09:01:30.699Z,74.49
2018-10-03T09:02:30.718Z,74.30
2018-10-03T09:03:30.711Z,74.10
2018-10-03T09:04:30.713Z,74.20
2018-10-03T09:05:30.730Z,74.40
2018-10-03T09:06:30.736Z,74.10
2018-10-03T09:07:30.741Z,74.20
2018-10-03T09:08:30.743Z,74.20
2018-10-03T09:09:30.737Z,74.20
2018-10-03T09:10:30.740Z,74.10
2018-10-03T09:11:30.782Z,74.20
2018-10-03T09:12:30.762Z,74.10
2018-10-03T09:13:30.768Z,74.01
2018-10-03T09:14:30.990Z,73.82
2018-10-03T09:15:30.773Z,74.20
2018-10-03T09:16:30.797Z,74.10
2018-10-03T09:17:30.788Z,74.68
2018-10-03T09:18:30.828Z,74.88
2018-10-03T09:19:30.793Z,74.88
2018-10-03T09:20:30.812Z,74.68
2018-10-03T09:21:30.864Z,74.58
2018-10-03T09:22:30.809Z,74.58
2018-10-03T09:23:30.802Z,74.68
2018-10-03T09:24:30.808Z,74.58
2018-10-03T09:25:31.024Z,74.68
2018-10-03T09:26:31.032Z,74.30
2018-10-03T09:27:30.835Z,74.58
2018-10-03T09:28:30.943Z,74.58
2018-10-03T09:29:30.841Z,74.49
2018-10-03T09:30:30.843Z,74.40
2018-10-03T09:31:30.837Z,74.30
2018-10-03T09:32:30.869Z,74.40
2018-10-03T09:33:31.020Z,74.49
2018-10-03T09:34:30.854Z,74.88
2018-10-03T09:35:30.856Z,74.97
2018-10-03T09:36:30.862Z,74.97
2018-10-03T09:37:30.875Z,74.78
2018-10-03T09:38:30.868Z,74.88
2018-10-03T09:39:31.173Z,74.78
2018-10-03T09:40:30.880Z,74.88
2018-10-03T09:41:30.889Z,74.78
2018-10-03T09:42:30.889Z,74.78
2018-10-03T09:43:30.904Z,74.78
2018-10-03T09:44:30.932Z,75.07
2018-10-03T09:45:30.904Z,74.88
2018-10-03T09:46:30.919Z,74.97
2018-10-03T09:47:30.938Z,74.88
2018-10-03T09:48:30.927Z,74.78
2018-10-03T09:49:30.931Z,75.07
2018-10-03T09:50:30.933Z,75.26
2018-10-03T09:51:31.137Z,74.97
2018-10-03T09:52:30.935Z,74.88
2018-10-03T09:53:30.940Z,75.16
2018-10-03T09:54:30.945Z,74.97
2018-10-03T09:55:30.964Z,74.78
2018-10-03T09:56:30.973Z,74.88
2018-10-03T09:57:30.973Z,74.88
2018-10-03T09:58:31.166Z,75.07
2018-10-03T09:59:30.967Z,75.07
2018-10-03T10:00:31.155Z,75.07
2018-10-03T10:01:30.998Z,75.07
2018-10-03T10:02:30.993Z,74.88
2018-10-03T10:03:30.995Z,75.26
2018-10-03T10:04:30.989Z,74.88
2018-10-03T10:05:31.016Z,75.26
2018-10-03T10:06:31.012Z,75.36
2018-10-03T10:07:31.017Z,75.16
2018-10-03T10:08:31.036Z,74.88
2018-10-03T10:09:31.244Z,74.97
2018-10-03T10:10:31.032Z,74.78
2018-10-03T10:11:31.209Z,74.68
2018-10-03T10:12:31.052Z,75.16
2018-10-03T10:13:31.032Z,74.97
2018-10-03T10:14:31.044Z,74.78
2018-10-03T10:15:31.045Z,75.07
2018-10-03T10:16:31.045Z,74.88
2018-10-03T10:17:31.060Z,74.88
2018-10-03T10:18:31.084Z,74.88
2018-10-03T10:19:31.061Z,74.88
2018-10-03T10:20:31.069Z,75.07
2018-10-03T10:21:31.095Z,74.72
2018-10-03T10:22:31.280Z,74.68
2018-10-03T10:23:31.078Z,74.97
2018-10-03T10:24:31.106Z,74.88
2018-10-03T10:25:31.089Z,75.26
2018-10-03T10:26:31.094Z,75.26
2018-10-03T10:27:31.114Z,74.78
2018-10-03T10:28:31.103Z,74.78
2018-10-03T10:29:31.111Z,74.97
2018-10-03T10:30:31.312Z,75.16
2018-10-03T10:31:31.141Z,75.26
2018-10-03T10:32:31.159Z,75.26
2018-10-03T10:33:31.138Z,75.16
2018-10-03T10:34:31.131Z,74.88
2018-10-03T10:35:31.138Z,74.78
2018-10-03T10:36:31.142Z,75.16
2018-10-03T10:37:31.145Z,75.26
2018-10-03T10:38:31.153Z,75.07
2018-10-03T10:39:31.167Z,75.07
2018-10-03T10:40:31.343Z,75.07
2018-10-03T10:41:31.392Z,75.16
2018-10-03T10:42:31.379Z,74.97
2018-10-03T10:43:31.355Z,74.97
2018-10-03T10:44:31.182Z,75.07
2018-10-03T10:45:31.198Z,75.07
2018-10-03T10:46:31.193Z,74.97
2018-10-03T10:47:31.191Z,74.88
2018-10-03T10:48:31.220Z,75.26
2018-10-03T10:49:31.217Z,74.97
2018-10-03T10:50:31.215Z,75.01
2018-10-03T10:51:31.222Z,75.16
2018-10-03T10:52:31.235Z,74.97
2018-10-03T10:53:31.232Z,74.88
2018-10-03T10:54:31.223Z,74.88
2018-10-03T10:55:31.444Z,75.26
2018-10-03T10:56:31.258Z,75.16
2018-10-03T10:57:31.236Z,74.97
2018-10-03T10:58:31.255Z,75.07
2018-10-03T10:59:31.290Z,75.07
2018-10-03T11:00:31.267Z,75.20
2018-10-03T11:01:31.272Z,74.82
2018-10-03T11:02:31.465Z,75.16
2018-10-03T11:03:31.295Z,74.78
2018-10-03T11:04:31.285Z,75.20
2018-10-03T11:05:31.308Z,74.91
2018-10-03T11:06:31.305Z,74.82
2018-10-03T11:07:31.287Z,74.91
2018-10-03T11:08:31.313Z,74.82
2018-10-03T11:09:31.308Z,74.72
2018-10-03T11:10:31.314Z,74.24
2018-10-03T11:11:31.303Z,74.62
2018-10-03T11:12:31.312Z,74.91
2018-10-03T11:13:31.313Z,74.14
2018-10-03T11:14:31.318Z,73.47
2018-10-03T11:15:31.352Z,73.27
2018-10-03T11:16:31.341Z,72.99
2018-10-03T11:17:31.332Z,72.89
2018-10-03T11:18:31.338Z,72.60
2018-10-03T11:19:31.365Z,72.50
2018-10-03T11:20:31.357Z,72.60
2018-10-03T11:21:31.369Z,72.31
2018-10-03T11:22:31.372Z,72.31
2018-10-03T11:23:31.482Z,72.21
2018-10-03T11:24:31.579Z,72.21
2018-10-03T11:25:31.370Z,71.92
2018-10-03T11:26:31.376Z,72.02
2018-10-03T11:27:31.383Z,71.73
2018-10-03T11:28:31.393Z,71.92
2018-10-03T11:29:31.389Z,71.83
2018-10-03T11:30:31.596Z,71.54
2018-10-03T11:31:31.603Z,72.41
2018-10-03T11:32:31.404Z,71.92
2018-10-03T11:33:31.417Z,72.34
2018-10-03T11:34:31.425Z,72.41
2018-10-03T11:35:31.426Z,72.41
2018-10-03T11:36:31.423Z,72.63
2018-10-03T11:37:31.439Z,72.44
2018-10-03T11:38:31.429Z,72.83
2018-10-03T11:39:31.461Z,72.73
2018-10-03T11:40:31.455Z,72.73
2018-10-03T11:41:31.666Z,72.73
2018-10-03T11:42:31.454Z,72.73
2018-10-03T11:43:31.457Z,72.63
2018-10-03T11:44:31.459Z,72.83
2018-10-03T11:45:31.462Z,72.83
2018-10-03T11:46:31.482Z,72.63
2018-10-03T11:47:31.485Z,72.92
2018-10-03T11:48:31.492Z,72.83
2018-10-03T11:49:31.499Z,72.92
2018-10-03T11:50:31.506Z,72.25
2018-10-03T11:51:31.493Z,72.34
2018-10-03T11:52:31.497Z,72.15
2018-10-03T11:53:31.505Z,72.15
2018-10-03T11:54:31.534Z,71.96
2018-10-03T11:55:31.524Z,72.25
2018-10-03T11:56:31.516Z,72.25
2018-10-03T11:57:31.550Z,72.34
2018-10-03T11:58:31.741Z,72.44
2018-10-03T11:59:31.574Z,72.54
2018-10-03T12:00:31.740Z,72.25
2018-10-03T12:01:31.539Z,72.25
2018-10-03T12:02:31.546Z,72.25
2018-10-03T12:03:31.619Z,72.73
2018-10-03T12:04:31.759Z,72.63
2018-10-03T12:05:31.611Z,72.73
2018-10-03T12:06:31.627Z,72.44
2018-10-03T12:07:31.570Z,72.63
2018-10-03T12:08:31.575Z,72.83
2018-10-03T12:09:31.788Z,72.44
2018-10-03T12:10:31.584Z,72.44
2018-10-03T12:11:31.605Z,72.34
2018-10-03T12:12:31.594Z,72.73
2018-10-03T12:13:31.670Z,72.73
2018-10-03T12:14:31.607Z,72.34
2018-10-03T12:15:31.611Z,72.54
2018-10-03T12:16:31.615Z,72.28
2018-10-03T12:17:31.822Z,72.48
2018-10-03T12:18:31.641Z,72.58
2018-10-03T12:19:31.629Z,72.58
2018-10-03T12:20:31.635Z,72.38
2018-10-03T12:21:31.642Z,72.58
2018-10-03T12:22:31.645Z,72.67
2018-10-03T12:23:31.649Z,72.54
2018-10-03T12:24:31.682Z,72.58
2018-10-03T12:25:31.658Z,72.86
2018-10-03T12:26:31.867Z,72.48
2018-10-03T12:27:31.680Z,72.77
2018-10-03T12:28:31.674Z,72.86
2018-10-03T12:29:31.884Z,72.38
2018-10-03T12:30:31.890Z,72.28
2018-10-03T12:31:31.689Z,72.28
2018-10-03T12:32:31.697Z,72.19
2018-10-03T12:33:31.754Z,72.48
2018-10-03T12:34:31.916Z,72.38
2018-10-03T12:35:31.724Z,72.58
2018-10-03T12:36:31.718Z,72.58
2018-10-03T12:37:31.921Z,72.38
2018-10-03T12:38:31.739Z,72.28
2018-10-03T12:39:31.932Z,72.00
2018-10-03T12:40:31.735Z,71.80
2018-10-03T12:41:31.739Z,71.51
2018-10-03T12:42:31.756Z,72.03
2018-10-03T12:43:31.761Z,71.90
2018-10-03T12:44:31.756Z,71.80
2018-10-03T12:45:31.977Z,71.80
2018-10-03T12:46:31.980Z,71.80
2018-10-03T12:47:31.770Z,71.84
2018-10-03T12:48:31.791Z,72.00
2018-10-03T12:49:31.782Z,72.00
2018-10-03T12:50:31.990Z,72.09
2018-10-03T12:51:31.808Z,72.03
2018-10-03T12:52:31.807Z,71.80
2018-10-03T12:53:31.803Z,71.80